Time;durP1;ratioP1;P1;durP2;ratioP2;P2;SDS_P1;SDS_P2;PMS_P1;PMS_P2;Temp;Humidity;BMP_temperature;BMP_pressure;BME280_temperature;BME280_humidity;BME280_pressure;Samples;Min_cycle;Max_cycle;Signal;HPM_P1;HPM_P2
2022/12/26 00:02:10;;;;;;;14.27;6.90;;;;;;;10.12;69.50;99072.59;5133738;28;20065;-72
2022/12/26 00:05:00;;;;;;;12.63;7.55;;;;;;;10.19;69.20;99073.69;5143899;28;20528;-72
2022/12/26 00:07:50;;;;;;;12.43;6.93;;;;;;;10.20;69.25;99072.75;5141179;28;20043;-72
2022/12/26 00:10:40;;;;;;;13.35;7.38;;;;;;;10.16;69.00;99058.06;5128600;28;20049;-72
2022/12/26 00:13:30;;;;;;;18.10;7.38;;;;;;;10.11;68.59;99065.63;5139377;28;20125;-72
2022/12/26 00:16:32;;;;;;;13.20;7.53;;;;;;;10.24;69.29;99095.31;5140696;28;20062;-72
2022/12/26 00:19:22;;;;;;;16.20;7.85;;;;;;;10.23;68.66;99093.66;5138645;28;20561;-72
2022/12/26 00:22:14;;;;;;;13.90;7.35;;;;;;;10.27;69.23;99096.91;5153989;28;20057;-72
2022/12/26 00:25:05;;;;;;;16.02;7.55;;;;;;;10.36;68.68;99093.38;5142025;28;20861;-72
2022/12/26 00:27:55;;;;;;;10.90;6.78;;;;;;;10.46;68.16;99081.00;5141377;28;20429;-72
2022/12/26 00:30:45;;;;;;;13.15;6.45;;;;;;;10.43;68.04;99067.16;5140183;28;20065;-73
2022/12/26 00:33:36;;;;;;;9.73;5.93;;;;;;;10.57;68.37;99072.03;5138049;28;20059;-72
2022/12/26 00:36:31;;;;;;;11.93;6.72;;;;;;;10.59;68.95;99093.94;5135114;28;20074;-73
2022/12/26 00:39:21;;;;;;;12.93;7.68;;;;;;;10.41;68.29;99082.38;5139213;28;20054;-72
2022/12/26 00:42:11;;;;;;;18.25;7.78;;;;;;;10.44;68.42;99077.63;5151594;28;20047;-72
2022/12/26 00:45:02;;;;;;;16.98;7.57;;;;;;;10.56;68.01;99083.59;5143406;28;20185;-72
2022/12/26 00:47:52;;;;;;;11.38;6.88;;;;;;;10.52;68.19;99069.81;5139940;28;20054;-72
2022/12/26 00:50:42;;;;;;;8.50;4.88;;;;;;;10.45;67.40;99057.25;5141925;28;20046;-72
2022/12/26 00:53:34;;;;;;;8.85;3.50;;;;;;;10.40;67.98;99064.78;5150062;28;20046;-72
2022/12/26 00:56:24;;;;;;;8.65;3.75;;;;;;;10.61;67.54;99086.69;5140279;28;20124;-72
2022/12/26 00:59:14;;;;;;;10.77;6.00;;;;;;;10.44;68.32;99096.19;5143498;28;20061;-72
2022/12/26 01:02:36;;;;;;;13.20;6.85;;;;;;;10.41;68.00;99093.81;5156287;28;20053;-72
2022/12/26 01:05:14;;;;;;;14.30;6.93;;;;;;;10.28;67.99;99095.91;5144612;28;20108;-72
2022/12/26 01:08:04;;;;;;;12.90;7.38;;;;;;;10.21;68.88;99100.91;5142667;28;20129;-73
2022/12/26 01:11:38;;;;;;;12.95;7.35;;;;;;;10.18;67.75;99082.63;5142382;28;20520;-72
2022/12/26 01:14:25;;;;;;;13.13;6.95;;;;;;;10.10;68.73;99082.50;5144846;28;20058;-72
2022/12/26 01:17:15;;;;;;;13.00;7.00;;;;;;;10.05;68.61;99082.06;5142353;28;20502;-73
2022/12/26 01:20:06;;;;;;;12.30;7.72;;;;;;;10.06;68.39;99087.22;5145877;28;20425;-73
2022/12/26 01:22:56;;;;;;;12.35;6.70;;;;;;;9.96;68.63;99096.97;5143718;28;20205;-73
2022/12/26 01:25:47;;;;;;;10.55;6.13;;;;;;;10.03;69.35;99081.34;5143088;28;20190;-72
2022/12/26 01:28:57;;;;;;;11.68;6.38;;;;;;;9.92;68.88;99078.84;5124786;28;20070;-72
2022/12/26 01:31:47;;;;;;;13.27;7.35;;;;;;;9.98;68.68;99084.44;5138361;28;20050;-72
2022/12/26 01:34:37;;;;;;;7.70;5.05;;;;;;;9.93;68.07;99080.50;5145880;28;20068;-73
2022/12/26 01:37:27;;;;;;;10.73;5.50;;;;;;;9.86;68.74;99091.66;5140881;28;20089;-72
2022/12/26 01:40:17;;;;;;;9.45;5.88;;;;;;;9.75;68.29;99073.25;5152601;28;20097;-72
2022/12/26 01:43:11;;;;;;;7.40;4.90;;;;;;;9.77;68.95;99087.19;5143016;28;20054;-73
2022/12/26 01:46:01;;;;;;;6.97;4.80;;;;;;;9.73;68.50;99091.06;5145311;28;20076;-72
2022/12/26 01:48:53;;;;;;;9.73;5.40;;;;;;;9.64;69.50;99091.91;5141470;28;20054;-72
2022/12/26 01:51:48;;;;;;;9.90;5.18;;;;;;;9.53;69.76;99070.81;5142732;28;20054;-72
2022/12/26 01:54:41;;;;;;;8.07;4.57;;;;;;;9.76;69.61;99092.59;5146938;28;20054;-73
2022/12/26 01:57:41;;;;;;;11.27;3.88;;;;;;;10.13;68.58;99092.78;5139466;28;20057;-72
2022/12/26 02:00:32;;;;;;;8.38;4.93;;;;;;;10.05;69.06;99090.00;5140076;28;20055;-73
2022/12/26 02:06:33;;;;;;;11.70;6.82;;;;;;;9.86;68.78;99078.41;5141631;28;20130;-73
2022/12/26 02:09:24;;;;;;;12.82;7.20;;;;;;;9.86;68.67;99099.59;5140291;28;20055;-72
2022/12/26 02:12:20;;;;;;;11.40;6.30;;;;;;;9.81;69.22;99093.88;5157488;28;20038;-72
2022/12/26 02:15:26;;;;;;;12.88;6.82;;;;;;;9.73;69.14;99098.19;5143794;28;20437;-72
2022/12/26 02:18:16;;;;;;;13.45;7.40;;;;;;;9.73;69.76;99091.06;5139370;28;20050;-72
2022/12/26 02:21:30;;;;;;;14.13;7.60;;;;;;;9.58;69.68;99093.28;5140458;28;20055;-72
2022/12/26 02:24:48;;;;;;;14.85;8.13;;;;;;;9.62;69.94;99094.66;5147797;28;20628;-72
2022/12/26 02:28:02;;;;;;;13.48;8.25;;;;;;;9.44;70.05;99098.09;5138062;28;20093;-73
2022/12/26 02:31:18;;;;;;;13.25;7.50;;;;;;;9.40;69.92;99090.44;5138933;28;20057;-72
2022/12/26 02:34:18;;;;;;;14.98;7.65;;;;;;;9.48;70.19;99087.13;5145994;28;20189;-72
2022/12/26 02:37:37;;;;;;;11.90;6.93;;;;;;;9.59;70.05;99088.81;5151040;28;20087;-72
2022/12/26 02:40:34;;;;;;;11.73;6.82;;;;;;;9.50;70.72;99105.50;5143388;28;20054;-73
2022/12/26 02:43:46;;;;;;;12.00;7.00;;;;;;;9.69;69.91;99107.38;5147390;28;20053;-72
2022/12/26 02:47:03;;;;;;;17.73;7.63;;;;;;;9.59;69.90;99105.53;5149796;28;20129;-72
2022/12/26 03:13:10;;;;;;;10.38;6.60;;;;;;;9.97;68.29;99095.19;5140428;28;20050;-73
2022/12/26 03:19:15;;;;;;;11.80;6.60;;;;;;;9.99;68.60;99095.84;5143258;28;20061;-73
2022/12/26 03:22:29;;;;;;;9.52;5.10;;;;;;;10.09;68.43;99083.44;5150551;28;20509;-72
2022/12/26 03:28:48;;;;;;;8.60;3.60;;;;;;;10.75;67.05;99088.88;5141369;28;20153;-72
2022/12/26 03:31:38;;;;;;;5.53;2.92;;;;;;;10.96;66.10;99080.75;5140747;28;20505;-72
2022/12/26 03:34:28;;;;;;;6.07;2.80;;;;;;;11.11;65.69;99082.94;5143015;28;20122;-71
2022/12/26 03:37:50;;;;;;;5.80;2.92;;;;;;;11.07;64.86;99060.34;5140556;28;20197;-72
2022/12/26 04:44:23;;;;;;;10.48;5.40;;;;;;;10.30;68.06;99100.09;5141139;28;20046;-72
2022/12/26 04:47:13;;;;;;;8.73;5.03;;;;;;;10.32;68.99;99103.44;5146345;28;20054;-72
2022/12/26 04:50:11;;;;;;;9.07;5.05;;;;;;;10.38;68.46;99093.28;5145812;28;20046;-72
2022/12/26 04:53:01;;;;;;;6.32;4.32;;;;;;;10.40;68.48;99075.38;5143527;28;20054;-72
2022/12/26 04:55:51;;;;;;;4.05;3.20;;;;;;;10.95;66.86;99072.94;5141342;28;20077;-72
2022/12/26 04:58:41;;;;;;;5.22;3.10;;;;;;;10.91;67.21;99055.63;5143278;28;20198;-72
2022/12/26 05:10:58;;;;;;;4.30;2.85;;;;;;;11.95;64.05;99070.38;5143759;28;20053;-72
2022/12/26 05:13:49;;;;;;;4.20;2.90;;;;;;;11.99;63.66;99068.25;5147757;28;20053;-72
2022/12/26 05:29:27;;;;;;;4.88;2.90;;;;;;;12.02;63.67;99061.78;5141734;28;20078;-72
2022/12/26 05:35:26;;;;;;;4.95;2.65;;;;;;;12.35;63.10;99084.19;5149085;28;20106;-71
2022/12/26 05:38:16;;;;;;;5.43;2.83;;;;;;;12.37;62.11;99076.91;5145885;28;20054;-71
2022/12/26 05:41:07;;;;;;;9.90;4.72;;;;;;;11.96;62.84;99089.81;5144084;28;20166;-71
2022/12/26 05:43:57;;;;;;;9.48;4.63;;;;;;;11.18;65.78;99097.28;5145023;28;20413;-71
2022/12/26 05:46:47;;;;;;;8.85;4.88;;;;;;;11.31;65.55;99094.31;5150491;28;20456;-71
2022/12/26 05:49:37;;;;;;;10.05;5.07;;;;;;;11.17;65.66;99098.28;5149995;28;20059;-71
2022/12/26 05:52:28;;;;;;;9.77;4.97;;;;;;;11.11;66.09;99112.13;5142030;28;20097;-71
2022/12/26 05:55:18;;;;;;;7.50;4.40;;;;;;;10.98;66.97;99107.13;5149881;28;20073;-71
2022/12/26 05:58:08;;;;;;;6.90;4.50;;;;;;;10.94;66.12;99095.97;5141243;28;20193;-71
2022/12/26 06:01:07;;;;;;;8.13;4.57;;;;;;;10.92;66.41;99105.03;5143877;28;20426;-71
2022/12/26 06:03:58;;;;;;;7.90;4.68;;;;;;;10.85;67.03;99099.47;5140736;28;20425;-72
2022/12/26 06:06:49;;;;;;;9.38;4.95;;;;;;;10.81;67.40;99092.78;5146273;28;20047;-71
2022/12/26 06:09:39;;;;;;;8.88;5.00;;;;;;;10.59;67.10;99099.25;5145184;28;20065;-71
2022/12/26 06:12:29;;;;;;;6.70;4.35;;;;;;;10.61;67.10;99089.34;5140876;28;20054;-71
2022/12/26 06:15:19;;;;;;;8.80;4.85;;;;;;;10.49;67.69;99077.19;5152399;28;20583;-71
2022/12/26 06:18:09;;;;;;;11.05;4.80;;;;;;;10.61;68.55;99112.38;5148270;28;20058;-71
2022/12/26 06:21:03;;;;;;;12.95;4.75;;;;;;;10.69;67.50;99105.38;5140594;28;20113;-71
2022/12/26 06:23:53;;;;;;;;;;;;;;;10.84;67.20;99097.81;5141170;28;20086;-71
2022/12/26 06:26:43;;;;;;;7.43;4.25;;;;;;;10.94;67.00;99103.09;5139868;28;19984;-71
2022/12/26 06:29:35;;;;;;;8.27;4.80;;;;;;;10.67;68.10;99094.06;5144206;28;20057;-71
2022/12/26 06:32:25;;;;;;;8.88;5.05;;;;;;;10.83;67.49;99106.75;5140495;28;20057;-71
2022/12/26 06:35:15;;;;;;;9.75;4.43;;;;;;;10.86;67.26;99105.63;5143541;28;20047;-71
2022/12/26 06:38:05;;;;;;;7.13;5.00;;;;;;;10.91;67.44;99114.81;5149524;28;20142;-71
2022/12/26 06:40:55;;;;;;;7.97;4.63;;;;;;;10.88;67.17;99099.19;5139372;28;20074;-71
2022/12/26 06:43:46;;;;;;;9.90;4.80;;;;;;;10.96;67.00;99095.81;5142808;28;20182;-71
2022/12/26 06:46:36;;;;;;;8.10;4.85;;;;;;;11.12;66.87;99089.91;5141450;28;20197;-71
2022/12/26 06:49:26;;;;;;;6.97;4.35;;;;;;;11.31;66.74;99108.41;5141091;28;20136;-71
2022/12/26 06:52:22;;;;;;;7.30;3.88;;;;;;;11.24;66.61;99100.22;5139603;28;20054;-71
2022/12/26 06:55:12;;;;;;;9.90;4.72;;;;;;;11.21;67.03;99105.81;5144236;28;20426;-71
2022/12/26 06:58:02;;;;;;;6.95;4.05;;;;;;;11.21;67.46;99108.44;5136996;28;20509;-71
2022/12/26 07:00:52;;;;;;;9.88;4.82;;;;;;;11.13;67.81;99108.34;5137628;28;20073;-71
2022/12/26 07:03:43;;;;;;;8.80;4.32;;;;;;;11.08;67.64;99102.63;5144177;28;20046;-71
2022/12/26 07:06:40;;;;;;;5.22;3.63;;;;;;;11.14;67.54;99119.81;5143702;28;20417;-71
2022/12/26 07:09:30;;;;;;;6.35;4.05;;;;;;;11.20;67.79;99124.53;5143673;28;20225;-71
2022/12/26 07:12:23;;;;;;;7.05;3.90;;;;;;;11.12;67.58;99100.53;5139104;28;20061;-71
2022/12/26 07:15:14;;;;;;;6.07;4.28;;;;;;;11.20;68.27;99119.22;5140418;28;20737;-71
2022/12/26 07:18:04;;;;;;;6.28;4.53;;;;;;;11.14;67.99;99130.41;5140316;28;20125;-72
2022/12/26 07:20:54;;;;;;;11.18;5.07;;;;;;;11.10;68.04;99124.56;5140336;28;20058;-71
2022/12/26 07:23:44;;;;;;;11.07;4.82;;;;;;;11.04;68.00;99118.00;5139663;28;20047;-71
2022/12/26 07:26:34;;;;;;;9.82;5.40;;;;;;;11.02;68.40;99105.84;5155351;28;20077;-71
2022/12/26 07:29:24;;;;;;;8.50;5.18;;;;;;;10.99;68.14;99096.38;5138145;28;20074;-71
2022/12/26 07:32:14;;;;;;;9.25;5.32;;;;;;;11.10;67.85;99129.03;5142475;28;20055;-71
2022/12/26 07:35:05;;;;;;;13.27;5.85;;;;;;;10.92;68.50;99126.28;5141014;28;20069;-71
2022/12/26 07:37:55;;;;;;;10.10;5.82;;;;;;;11.00;68.35;99135.19;5142889;28;20062;-71
2022/12/26 07:40:45;;;;;;;9.98;5.55;;;;;;;11.02;68.17;99138.53;5152420;28;20072;-71
2022/12/26 07:43:35;;;;;;;10.05;5.80;;;;;;;10.99;68.16;99140.63;5136438;28;20186;-72
2022/12/26 07:46:25;;;;;;;12.25;5.97;;;;;;;11.00;67.95;99137.03;5136402;28;20058;-72
2022/12/26 07:49:15;;;;;;;11.43;5.65;;;;;;;10.91;68.57;99129.91;5145157;28;20053;-72
2022/12/26 07:52:05;;;;;;;10.75;6.30;;;;;;;10.94;68.50;99127.81;5145322;28;20063;-72
2022/12/26 07:54:56;;;;;;;8.10;5.38;;;;;;;11.03;68.70;99148.19;5139588;28;20054;-72
2022/12/26 07:57:52;;;;;;;9.38;5.15;;;;;;;10.94;68.85;99121.66;5147127;28;20565;-72
2022/12/26 08:00:42;;;;;;;8.48;5.05;;;;;;;11.17;68.58;99146.06;5147473;28;20047;-72
2022/12/26 08:03:34;;;;;;;10.70;5.63;;;;;;;11.16;68.90;99150.53;5144434;28;20047;-72
2022/12/26 08:06:24;;;;;;;12.48;6.53;;;;;;;11.25;68.56;99154.13;5138381;28;20448;-72
2022/12/26 08:09:14;;;;;;;11.57;6.10;;;;;;;11.27;68.22;99146.88;5143763;28;20050;-72
2022/12/26 08:12:05;;;;;;;11.80;6.30;;;;;;;11.28;68.91;99145.88;5141072;28;20571;-72
2022/12/26 08:14:55;;;;;;;8.88;5.30;;;;;;;11.24;68.69;99137.38;5146985;28;20046;-72
2022/12/26 08:17:46;;;;;;;13.23;6.20;;;;;;;11.38;68.32;99156.47;5150230;28;20097;-72
2022/12/26 08:20:36;;;;;;;11.60;6.10;;;;;;;11.35;68.76;99159.41;5140307;28;20082;-72
2022/12/26 08:23:26;;;;;;;16.15;6.97;;;;;;;11.25;68.50;99152.28;5128985;28;20140;-72
2022/12/26 08:26:21;;;;;;;13.75;6.68;;;;;;;11.32;69.12;99146.41;5151904;28;20500;-72
2022/12/26 08:29:11;;;;;;;15.00;7.78;;;;;;;11.39;68.53;99160.78;5144508;28;20140;-72
2022/12/26 08:32:01;;;;;;;15.20;7.57;;;;;;;11.45;68.96;99166.34;5143905;28;20426;-72
2022/12/26 08:34:51;;;;;;;15.30;6.80;;;;;;;11.46;68.85;99183.97;5134054;28;20413;-71
2022/12/26 08:37:41;;;;;;;15.02;6.63;;;;;;;11.45;68.75;99181.44;5140084;28;20070;-69
2022/12/26 08:40:32;;;;;;;12.40;5.60;;;;;;;11.55;68.91;99192.03;5136818;28;20111;-69
2022/12/26 08:43:33;;;;;;;13.15;6.22;;;;;;;11.49;69.16;99196.97;5146878;28;20061;-70
2022/12/26 08:46:44;;;;;;;16.90;8.60;;;;;;;11.53;69.24;99210.78;5139865;28;20664;-69
2022/12/26 08:49:34;;;;;;;14.70;7.93;;;;;;;11.58;69.67;99227.09;5136046;28;20062;-69
2022/12/26 08:52:24;;;;;;;17.70;8.50;;;;;;;11.60;69.50;99243.75;5131046;28;20252;-69
2022/12/26 08:55:14;;;;;;;23.75;12.68;;;;;;;11.50;70.01;99250.91;5138489;28;20080;-69
2022/12/26 08:58:04;;;;;;;22.80;11.75;;;;;;;11.46;70.23;99263.63;5154619;28;20145;-70
2022/12/26 09:01:03;;;;;;;18.27;9.65;;;;;;;11.51;69.85;99277.31;5140374;28;20047;-70
2022/12/26 09:03:57;;;;;;;12.27;7.45;;;;;;;11.60;70.66;99272.97;5138406;28;20469;-69
2022/12/26 09:06:48;;;;;;;12.55;7.25;;;;;;;11.57;70.67;99283.88;5136376;28;20221;-69
2022/12/26 09:09:38;;;;;;;12.52;6.68;;;;;;;11.64;71.08;99282.31;5150109;28;20446;-70
2022/12/26 09:12:28;;;;;;;10.40;5.80;;;;;;;11.76;70.95;99280.34;5135602;28;20055;-70
2022/12/26 09:15:18;;;;;;;9.27;5.43;;;;;;;11.62;71.88;99262.19;5148901;28;20065;-68
2022/12/26 09:18:09;;;;;;;9.95;5.68;;;;;;;11.79;71.51;99282.72;5134217;28;20181;-69
2022/12/26 09:21:02;;;;;;;9.95;5.75;;;;;;;11.73;72.02;99284.09;5139179;28;20070;-69
2022/12/26 09:23:57;;;;;;;10.57;6.00;;;;;;;11.88;71.30;99291.63;5140123;28;20664;-70
2022/12/26 09:26:47;;;;;;;9.10;4.95;;;;;;;11.95;72.06;99296.25;5138430;28;20054;-69
2022/12/26 09:29:38;;;;;;;7.82;5.13;;;;;;;11.87;71.75;99282.00;5141262;28;20108;-71
2022/12/26 09:32:32;;;;;;;9.75;5.60;;;;;;;11.86;72.28;99307.75;5139168;28;20687;-69
2022/12/26 09:35:22;;;;;;;;;;;;;;;11.90;72.61;99332.19;5137622;28;20223;-70
2022/12/26 09:38:12;;;;;;;10.57;6.07;;;;;;;11.86;72.60;99298.94;5141909;28;20061;-69
2022/12/26 09:41:21;;;;;;;9.35;5.53;;;;;;;11.87;72.59;99297.94;5144211;28;20128;-70
2022/12/26 09:44:30;;;;;;;6.85;4.65;;;;;;;11.47;75.48;99317.56;5140376;28;20426;-71
2022/12/26 09:47:35;;;;;;;11.02;4.10;;;;;;;11.53;75.44;99324.97;5138962;28;20043;-71
2022/12/26 09:50:37;;;;;;;7.57;3.65;;;;;;;11.67;75.41;99323.69;5142816;28;20423;-69
2022/12/26 09:53:38;;;;;;;8.45;2.95;;;;;;;11.84;74.53;99330.94;5144184;28;20049;-71
2022/12/26 09:56:30;;;;;;;4.07;2.92;;;;;;;12.13;73.05;99330.03;5143773;28;20098;-70
2022/12/26 09:59:48;;;;;;;5.20;3.10;;;;;;;11.74;74.60;99332.75;5130220;28;20063;-70
2022/12/26 10:02:39;;;;;;;5.40;3.08;;;;;;;11.59;74.52;99315.59;5133628;28;20053;-71
2022/12/26 10:05:39;;;;;;;5.38;2.58;;;;;;;11.87;73.55;99335.97;5133438;28;20120;-71
2022/12/26 10:08:48;;;;;;;4.38;1.90;;;;;;;11.91;74.46;99341.84;5139930;28;20750;-71
2022/12/26 10:11:48;;;;;;;2.90;2.10;;;;;;;12.05;73.76;99340.53;5136002;28;20051;-71
2022/12/26 10:14:51;;;;;;;5.32;2.22;;;;;;;11.95;73.91;99316.66;5141667;28;20070;-70
2022/12/26 10:17:52;;;;;;;4.05;2.20;;;;;;;12.03;72.87;99323.91;5132881;28;20069;-70
2022/12/26 10:21:12;;;;;;;3.33;2.25;;;;;;;12.25;72.25;99320.03;5135234;28;20051;-70
2022/12/26 10:24:23;;;;;;;4.43;1.50;;;;;;;11.82;73.22;99330.25;5134142;28;20138;-70
2022/12/26 10:27:16;;;;;;;3.90;1.92;;;;;;;11.96;73.14;99321.00;5137684;28;20707;-70
2022/12/26 10:30:26;;;;;;;3.00;1.83;;;;;;;12.11;72.49;99332.00;5136592;28;20082;-70
2022/12/26 10:33:43;;;;;;;7.00;1.48;;;;;;;12.30;72.28;99325.78;5142731;28;20061;-71
2022/12/26 10:36:39;;;;;;;6.60;1.88;;;;;;;12.22;72.45;99337.13;5135686;28;20097;-70
2022/12/26 10:39:48;;;;;;;2.75;1.70;;;;;;;12.17;72.10;99332.25;5139100;28;20050;-71
2022/12/26 10:42:41;;;;;;;3.92;2.22;;;;;;;12.22;71.76;99327.34;5141819;28;20062;-71
2022/12/26 10:45:39;;;;;;;4.05;2.20;;;;;;;12.01;72.72;99342.66;5135607;28;20051;-71
2022/12/26 10:48:32;;;;;;;7.22;2.47;;;;;;;12.19;72.72;99359.53;5132121;28;20062;-71
2022/12/26 10:51:23;;;;;;;3.33;2.08;;;;;;;12.16;72.80;99351.00;5129535;28;20085;-73
2022/12/26 10:54:16;;;;;;;5.82;1.75;;;;;;;12.44;71.68;99343.88;5132967;28;20058;-72
2022/12/26 10:57:08;;;;;;;4.30;2.15;;;;;;;12.25;71.91;99336.84;5136225;28;20058;-71
2022/12/26 10:59:58;;;;;;;4.28;2.15;;;;;;;12.49;71.47;99357.59;5136780;28;20061;-71
2022/12/26 11:03:13;;;;;;;3.92;2.70;;;;;;;12.46;71.27;99353.41;5142966;28;20049;-71
2022/12/26 11:06:05;;;;;;;4.97;3.28;;;;;;;12.40;71.58;99332.72;5140585;28;20511;-71
2022/12/26 11:08:58;;;;;;;4.28;2.90;;;;;;;12.43;72.00;99336.91;5138305;28;20421;-70
2022/12/26 11:11:51;;;;;;;6.38;2.58;;;;;;;12.39;71.04;99335.53;5127824;28;20117;-70
2022/12/26 11:14:44;;;;;;;3.93;2.20;;;;;;;12.19;71.80;99313.50;5138409;28;20141;-70
2022/12/26 11:17:40;;;;;;;3.03;1.83;;;;;;;12.42;71.52;99327.25;5137769;28;20673;-70
2022/12/26 11:20:31;;;;;;;2.88;1.20;;;;;;;12.51;71.48;99317.53;5135720;28;20066;-71
2022/12/26 11:23:23;;;;;;;2.55;1.17;;;;;;;12.41;70.40;99294.47;5141685;28;20062;-70
2022/12/26 11:26:25;;;;;;;1.45;1.20;;;;;;;12.62;70.55;99291.59;5142657;28;20062;-70
2022/12/26 11:29:18;;;;;;;1.95;1.48;;;;;;;12.64;70.17;99289.59;5134922;28;20084;-70
2022/12/26 11:32:18;;;;;;;1.42;1.30;;;;;;;12.74;69.75;99284.22;5132053;28;20049;-70
2022/12/26 11:35:16;;;;;;;2.05;0.93;;;;;;;12.46;70.49;99278.94;5137825;28;20190;-70
2022/12/26 11:38:33;;;;;;;2.90;1.10;;;;;;;12.38;70.99;99285.97;5147288;28;20055;-71
2022/12/26 11:41:40;;;;;;;4.45;1.95;;;;;;;12.47;71.01;99301.03;5137183;28;20066;-71
2022/12/26 11:44:34;;;;;;;7.22;1.90;;;;;;;12.56;71.03;99300.16;5138080;28;20141;-70
2022/12/26 11:47:27;;;;;;;5.15;2.20;;;;;;;12.59;70.44;99307.84;5138537;28;20061;-71
2022/12/26 11:50:20;;;;;;;3.15;2.10;;;;;;;12.93;69.59;99328.50;5133954;28;20050;-71
2022/12/26 11:53:16;;;;;;;15.63;5.65;;;;;;;12.49;69.98;99322.19;5132234;28;20062;-71
2022/12/26 11:56:07;;;;;;;6.03;2.22;;;;;;;12.82;68.63;99305.59;5136061;28;20059;-71
2022/12/26 11:59:15;;;;;;;5.32;3.10;;;;;;;12.84;69.33;99311.59;5149490;28;20058;-71
2022/12/26 12:02:23;;;;;;;1.98;1.50;;;;;;;12.70;69.48;99320.09;5134343;28;20137;-71
2022/12/26 12:05:28;;;;;;;2.67;1.67;;;;;;;12.80;69.81;99314.72;5137320;28;20050;-70
2022/12/26 12:08:51;;;;;;;3.13;1.90;;;;;;;12.73;70.27;99298.50;5141281;28;20094;-70
2022/12/26 12:12:02;;;;;;;3.72;1.38;;;;;;;12.81;69.65;99282.63;5129569;28;20070;-70
2022/12/26 12:15:09;;;;;;;1.30;1.10;;;;;;;12.57;68.11;99259.25;5127054;28;20054;-70
2022/12/26 12:18:21;;;;;;;3.40;1.23;;;;;;;12.98;67.78;99293.41;5131526;28;20054;-70
2022/12/26 12:21:29;;;;;;;1.25;0.80;;;;;;;13.08;67.77;99302.19;5132393;28;20081;-70
2022/12/26 12:24:28;;;;;;;2.75;1.17;;;;;;;12.93;67.49;99304.53;5130764;28;20165;-70
2022/12/26 12:27:30;;;;;;;5.15;0.90;;;;;;;12.77;68.27;99294.56;5134161;28;20059;-70
2022/12/26 12:30:28;;;;;;;1.30;0.63;;;;;;;13.07;67.13;99301.34;5131197;28;20568;-70
2022/12/26 12:33:38;;;;;;;1.90;0.90;;;;;;;13.21;66.42;99301.78;5136584;28;20089;-70
2022/12/26 12:36:40;;;;;;;2.22;0.63;;;;;;;13.20;67.36;99298.28;5142021;28;20058;-70
2022/12/26 12:39:43;;;;;;;1.27;0.60;;;;;;;13.24;66.20;99294.34;5138186;28;20099;-70
2022/12/26 12:42:46;;;;;;;1.50;0.70;;;;;;;13.05;65.37;99300.66;5140250;28;20065;-70
2022/12/26 12:46:01;;;;;;;2.23;0.60;;;;;;;13.10;65.13;99303.69;5131242;28;20104;-70
2022/12/26 12:49:07;;;;;;;1.67;0.95;;;;;;;12.97;65.28;99276.63;5137816;28;20572;-71
2022/12/26 12:52:16;;;;;;;2.95;0.70;;;;;;;13.07;64.61;99295.19;5136555;28;20057;-70
2022/12/26 12:55:28;;;;;;;1.45;0.82;;;;;;;12.99;66.01;99295.94;5133395;28;20083;-69
2022/12/26 12:58:34;;;;;;;1.90;0.70;;;;;;;12.77;66.09;99291.91;5140906;28;20062;-70
2022/12/26 13:01:28;;;;;;;0.75;0.60;;;;;;;12.79;65.39;99287.28;5139577;28;20093;-70
2022/12/26 13:04:25;;;;;;;1.05;0.60;;;;;;;12.80;66.55;99296.91;5140670;28;20057;-71
2022/12/26 13:07:18;;;;;;;1.17;0.45;;;;;;;12.90;65.06;99271.06;5140908;28;20066;-71
2022/12/26 13:10:21;;;;;;;5.73;0.63;;;;;;;13.14;65.15;99289.13;5134147;28;20230;-70
2022/12/26 13:13:29;;;;;;;0.50;0.50;;;;;;;13.03;65.06;99276.00;5140646;28;20054;-71
2022/12/26 13:16:25;;;;;;;1.17;0.47;;;;;;;12.99;64.69;99279.97;5139968;28;20193;-72
2022/12/26 13:19:23;;;;;;;1.02;0.88;;;;;;;13.16;63.41;99270.31;5140122;28;20982;-71
2022/12/26 13:22:22;;;;;;;0.55;0.50;;;;;;;12.86;65.67;99290.16;5138179;28;20568;-71
2022/12/26 13:25:12;;;;;;;1.67;0.52;;;;;;;13.01;64.07;99248.69;5142079;28;20051;-72
2022/12/26 13:28:08;;;;;;;1.48;0.68;;;;;;;13.09;64.33;99264.75;5138060;28;20060;-72
2022/12/26 13:30:59;;;;;;;0.75;0.60;;;;;;;13.03;64.53;99259.22;5135501;28;20058;-72
2022/12/26 13:33:50;;;;;;;2.38;0.80;;;;;;;13.03;64.79;99265.38;5138809;28;20418;-71
2022/12/26 13:36:53;;;;;;;0.98;0.68;;;;;;;13.03;64.34;99267.19;5143062;28;20069;-71
2022/12/26 13:39:43;;;;;;;0.70;0.60;;;;;;;13.07;64.84;99260.56;5145566;28;20070;-71
2022/12/26 13:46:33;;;;;;;2.42;0.60;;;;;;;12.88;64.58;99270.41;5141755;28;20057;-73
2022/12/26 13:49:37;;;;;;;0.70;0.50;;;;;;;12.83;65.27;99269.19;5136398;28;20074;-72
2022/12/26 13:52:33;;;;;;;1.45;0.70;;;;;;;12.90;65.74;99271.06;5145683;28;20054;-73
2022/12/26 13:55:41;;;;;;;0.85;0.73;;;;;;;13.21;64.01;99269.84;5141078;28;20058;-73
2022/12/26 13:58:46;;;;;;;0.77;0.70;;;;;;;12.93;65.37;99272.59;5136794;28;20433;-74
2022/12/26 14:01:50;;;;;;;0.85;0.60;;;;;;;12.93;65.28;99270.78;5140235;28;20054;-73
2022/12/26 14:05:12;;;;;;;0.70;0.55;;;;;;;12.86;65.44;99274.19;5137925;28;20101;-72
2022/12/26 14:08:08;;;;;;;4.22;0.70;;;;;;;12.99;65.52;99269.34;5133975;28;20050;-72
2022/12/26 14:11:28;;;;;;;0.88;0.80;;;;;;;13.19;63.90;99256.69;5131067;28;20053;-73
2022/12/26 14:14:40;;;;;;;0.60;0.50;;;;;;;13.08;64.31;99244.47;5138014;28;20051;-73
2022/12/26 14:18:06;;;;;;;1.27;0.85;;;;;;;13.10;64.52;99263.75;5137579;28;20535;-70
2022/12/26 14:21:15;;;;;;;0.98;0.63;;;;;;;12.99;64.34;99253.38;5140245;28;20137;-73
2022/12/26 14:24:11;;;;;;;0.60;0.50;;;;;;;13.21;64.28;99267.19;5137141;28;20101;-76
2022/12/26 14:27:17;;;;;;;2.25;0.70;;;;;;;13.35;63.86;99269.34;5133225;28;20647;-74
2022/12/26 14:30:20;;;;;;;0.65;0.60;;;;;;;12.97;64.37;99260.66;5138493;28;20062;-73
2022/12/26 14:33:17;;;;;;;1.13;0.80;;;;;;;13.04;64.87;99247.56;5142453;28;20047;-73
2022/12/26 14:36:13;;;;;;;1.45;0.90;;;;;;;13.02;64.97;99250.41;5141079;28;20421;-73
2022/12/26 14:39:29;;;;;;;1.23;0.55;;;;;;;13.16;64.50;99262.31;5133416;28;20058;-73
2022/12/26 14:45:41;;;;;;;0.98;0.70;;;;;;;12.76;64.81;99265.44;5142661;28;20051;-70
2022/12/26 14:48:31;;;;;;;2.17;0.73;;;;;;;13.30;63.65;99264.47;5144623;28;20081;-71
2022/12/26 14:51:31;;;;;;;0.50;0.50;;;;;;;13.50;62.89;99257.09;5139368;28;20173;-73
2022/12/26 14:54:22;;;;;;;1.38;0.73;;;;;;;13.21;64.19;99260.06;5141662;28;20066;-72
2022/12/26 14:57:38;;;;;;;0.90;0.70;;;;;;;13.06;64.61;99259.75;5140007;28;20053;-73
2022/12/26 15:00:31;;;;;;;2.28;0.70;;;;;;;13.24;63.82;99253.56;5137152;28;20047;-71
2022/12/26 15:03:43;;;;;;;0.80;0.63;;;;;;;13.16;63.71;99249.84;5140412;28;20089;-73
2022/12/26 15:07:11;;;;;;;1.63;0.85;;;;;;;13.35;63.88;99237.38;5142789;28;20182;-71
2022/12/26 15:10:18;;;;;;;;;;;;;;;13.14;64.30;99230.53;5133778;28;20078;-70
2022/12/26 15:13:14;;;;;;;1.30;1.02;;;;;;;13.27;63.76;99234.63;5130694;28;19927;-71
2022/12/26 15:16:31;;;;;;;1.65;0.80;;;;;;;13.19;64.24;99227.41;5127316;28;20043;-71
2022/12/26 15:19:45;;;;;;;2.67;0.85;;;;;;;12.92;64.67;99231.84;5140068;28;20053;-71
2022/12/26 15:23:00;;;;;;;3.03;1.80;;;;;;;12.98;64.95;99225.09;5139516;28;20062;-72
2022/12/26 15:26:02;;;;;;;3.45;1.00;;;;;;;12.92;64.59;99228.34;5139495;28;20293;-72
2022/12/26 15:29:07;;;;;;;1.17;0.93;;;;;;;13.08;64.76;99241.81;5140736;28;20061;-69
2022/12/26 15:32:15;;;;;;;0.77;0.77;;;;;;;13.08;64.75;99249.78;5141731;28;20128;-71
2022/12/26 15:35:19;;;;;;;2.58;1.30;;;;;;;12.94;65.37;99259.13;5144301;28;20059;-70
2022/12/26 15:38:22;;;;;;;1.50;1.13;;;;;;;12.93;65.19;99249.47;5135684;28;20054;-72
2022/12/26 15:41:26;;;;;;;1.73;1.20;;;;;;;12.74;65.12;99252.28;5140075;28;20054;-70
2022/12/26 15:44:30;;;;;;;1.88;1.15;;;;;;;12.93;64.49;99232.69;5142268;28;20145;-71
2022/12/26 15:47:30;;;;;;;2.92;0.88;;;;;;;12.98;65.31;99262.34;5139208;28;20136;-73
2022/12/26 15:50:28;;;;;;;3.53;1.50;;;;;;;13.13;64.40;99246.66;5145560;28;20070;-74
2022/12/26 15:53:27;;;;;;;1.08;0.98;;;;;;;13.03;64.77;99261.88;5145357;28;20060;-71
2022/12/26 15:56:58;;;;;;;2.47;1.20;;;;;;;13.15;64.86;99258.00;5140221;28;20075;-73
2022/12/26 16:00:07;;;;;;;1.83;1.25;;;;;;;13.18;64.46;99252.38;5142253;28;20078;-73
2022/12/26 16:03:26;;;;;;;3.03;1.35;;;;;;;12.87;66.00;99266.06;5143755;28;20080;-72